Time;durP1;ratioP1;P1;durP2;ratioP2;P2;SDS_P1;SDS_P2;PMS_P1;PMS_P2;Temp;Humidity;BMP_temperature;BMP_pressure;BME280_temperature;BME280_humidity;BME280_pressure;Samples;Min_cycle;Max_cycle;Signal;HPM_P1;HPM_P2
2022/01/25 00:31:09;;;;;;;9.70;6.93;;;20.00;52.40;;;;;;5012680;28;20049;-59
2022/01/25 00:33:35;;;;;;;8.77;6.78;;;19.90;51.60;;;;;;5013527;28;20042;-59
2022/01/25 00:36:02;;;;;;;9.55;6.85;;;20.00;51.70;;;;;;5013612;28;20501;-60
2022/01/25 00:38:27;;;;;;;8.43;6.88;;;19.90;51.60;;;;;;5012647;28;20061;-60
2022/01/25 00:40:53;;;;;;;8.05;6.68;;;20.00;51.60;;;;;;5013723;28;20489;-60
2022/01/25 00:43:20;;;;;;;9.13;6.75;;;19.90;51.60;;;;;;5012528;28;20509;-59
2022/01/25 00:45:46;;;;;;;8.77;6.80;;;19.90;51.60;;;;;;5013481;28;20041;-60
2022/01/25 00:48:18;;;;;;;7.90;6.53;;;19.90;51.50;;;;;;5013369;28;20100;-59
2022/01/25 00:50:47;;;;;;;8.48;6.47;;;19.90;51.50;;;;;;5012559;28;20085;-59
2022/01/25 00:54:00;;;;;;;8.68;6.45;;;19.90;51.40;;;;;;5012872;28;20785;-59
2022/01/25 00:55:58;;;;;;;8.52;6.55;;;19.90;51.40;;;;;;5002478;28;20140;-59
2022/01/25 00:58:24;;;;;;;8.10;6.68;;;19.90;51.40;;;;;;5011872;28;20128;-59
2022/01/25 01:00:50;;;;;;;9.27;6.90;;;19.90;51.40;;;;;;5012704;28;20060;-60
2022/01/25 01:03:16;;;;;;;9.05;7.07;;;19.80;51.30;;;;;;5013065;28;20053;-60
2022/01/25 01:05:42;;;;;;;10.32;7.13;;;19.90;51.30;;;;;;5012547;28;20042;-59
2022/01/25 01:08:07;;;;;;;9.88;7.20;;;19.80;51.30;;;;;;5012727;28;20053;-59
2022/01/25 01:10:33;;;;;;;8.10;6.50;;;19.80;51.20;;;;;;5012982;28;20075;-60
2022/01/25 01:15:55;;;;;;;9.35;7.07;;;19.80;51.20;;;;;;5013027;28;20067;-59
2022/01/25 01:29:27;;;;;;;8.07;6.57;;;19.80;51.10;;;;;;5012914;28;20054;-59
2022/01/25 01:32:01;;;;;;;9.48;6.45;;;19.80;51.10;;;;;;4995352;28;20053;-59
2022/01/25 01:35:22;;;;;;;8.20;6.60;;;19.70;51.10;;;;;;5011837;28;20485;-59
2022/01/25 01:37:49;;;;;;;9.23;6.85;;;19.70;51.00;;;;;;5011680;28;20401;-59
2022/01/25 01:40:40;;;;;;;7.13;6.05;;;19.70;51.00;;;;;;5010697;28;20049;-59
2022/01/25 01:48:15;;;;;;;8.88;6.68;;;19.70;51.00;;;;;;5012090;28;20077;-59
2022/01/25 01:50:40;;;;;;;8.38;6.90;;;19.60;51.00;;;;;;5012814;28;20057;-59
2022/01/25 01:53:07;;;;;;;8.80;7.05;;;19.60;50.90;;;;;;5013265;28;20045;-59
2022/01/25 01:55:32;;;;;;;7.50;6.10;;;19.60;50.90;;;;;;5011419;28;20037;-59
2022/01/25 01:57:58;;;;;;;8.70;6.82;;;19.60;51.00;;;;;;5013106;28;20037;-59
2022/01/25 02:00:31;;;;;;;8.77;6.38;;;19.60;50.90;;;;;;5013039;28;20054;-59
2022/01/25 02:02:57;;;;;;;9.55;7.18;;;19.60;51.00;;;;;;5012031;28;20038;-59
2022/01/25 02:05:22;;;;;;;8.73;6.43;;;19.60;50.90;;;;;;5013865;28;20045;-60
2022/01/25 02:07:48;;;;;;;8.38;7.07;;;19.60;50.90;;;;;;5015593;28;20120;-59
2022/01/25 02:10:13;;;;;;;8.25;6.65;;;19.60;50.90;;;;;;5016478;28;20053;-59
2022/01/25 02:12:40;;;;;;;8.02;6.82;;;19.60;50.90;;;;;;5016021;28;20092;-59
2022/01/25 02:15:07;;;;;;;7.80;6.32;;;19.60;50.90;;;;;;5015721;28;20504;-59
2022/01/25 02:17:59;;;;;;;8.70;6.47;;;19.60;50.90;;;;;;5016165;28;20125;-59
2022/01/25 02:23:24;;;;;;;7.68;6.30;;;19.60;50.80;;;;;;5010213;28;20489;-59
2022/01/25 02:25:53;;;;;;;7.70;6.45;;;19.60;50.80;;;;;;4998864;28;20560;-59
2022/01/25 02:28:19;;;;;;;8.82;6.47;;;19.60;50.90;;;;;;4996315;28;20114;-59
2022/01/25 02:30:44;;;;;;;7.15;6.20;;;19.60;50.90;;;;;;4995659;28;20066;-59
2022/01/25 02:33:10;;;;;;;7.38;5.85;;;19.60;50.90;;;;;;4996444;28;20054;-60
2022/01/25 02:35:36;;;;;;;8.07;6.45;;;19.60;50.80;;;;;;4996263;28;20042;-59
2022/01/25 02:38:01;;;;;;;7.85;6.18;;;19.50;50.80;;;;;;4995689;28;20416;-59
2022/01/25 02:40:27;;;;;;;8.05;6.28;;;19.60;50.80;;;;;;4996173;28;20039;-59
2022/01/25 02:42:53;;;;;;;8.73;6.68;;;19.60;50.80;;;;;;4995136;28;20046;-59
2022/01/25 02:45:19;;;;;;;8.65;6.78;;;19.50;50.80;;;;;;4996189;28;20046;-59
2022/01/25 02:50:29;;;;;;;7.10;6.05;;;19.60;50.90;;;;;;4994944;28;20445;-59
2022/01/25 02:52:55;;;;;;;7.78;5.95;;;19.60;50.90;;;;;;4995557;28;20562;-59
2022/01/25 02:55:20;;;;;;;7.50;5.88;;;19.60;50.90;;;;;;4995159;28;20042;-59
2022/01/25 02:57:46;;;;;;;8.80;6.70;;;19.60;50.90;;;;;;4994928;28;20046;-59
2022/01/25 03:00:12;;;;;;;7.15;5.90;;;19.60;50.80;;;;;;4995710;28;20042;-59
2022/01/25 03:02:38;;;;;;;7.75;6.00;;;19.60;50.80;;;;;;4994825;28;20069;-59
2022/01/25 03:05:04;;;;;;;9.43;6.28;;;19.60;50.80;;;;;;4994957;28;20474;-59
2022/01/25 03:07:30;;;;;;;8.68;6.00;;;19.60;50.80;;;;;;4995568;28;20059;-60
2022/01/25 03:09:58;;;;;;;7.65;6.28;;;19.60;50.80;;;;;;4995883;28;20121;-59
2022/01/25 03:12:34;;;;;;;7.57;5.80;;;19.70;50.80;;;;;;4995150;28;20058;-59
2022/01/25 03:15:56;;;;;;;6.80;5.47;;;19.70;50.90;;;;;;4995826;28;20061;-59
2022/01/25 03:17:51;;;;;;;6.85;5.60;;;19.70;50.80;;;;;;4976824;28;20140;-59
2022/01/25 03:20:33;;;;;;;7.82;5.93;;;19.70;50.80;;;;;;4994978;28;20078;-59
2022/01/25 03:22:59;;;;;;;7.05;5.50;;;19.70;50.80;;;;;;4995505;28;20038;-59
2022/01/25 03:25:25;;;;;;;7.60;5.90;;;19.70;50.80;;;;;;4994556;28;20053;-59
2022/01/25 03:27:51;;;;;;;8.35;5.95;;;19.70;50.70;;;;;;4995461;28;20072;-59
2022/01/25 03:30:16;;;;;;;6.78;5.45;;;19.80;50.80;;;;;;4995264;28;20074;-59
2022/01/25 03:32:42;;;;;;;8.05;5.97;;;19.70;50.70;;;;;;4993849;28;20050;-59
2022/01/25 03:35:08;;;;;;;6.78;5.38;;;19.80;50.80;;;;;;4995214;28;20042;-60
2022/01/25 03:37:33;;;;;;;6.95;5.32;;;19.80;50.80;;;;;;4994894;28;20054;-59
2022/01/25 03:39:59;;;;;;;6.97;5.43;;;19.80;50.80;;;;;;4994507;28;20043;-59
2022/01/25 03:42:25;;;;;;;7.35;5.70;;;19.80;50.80;;;;;;4994981;28;20053;-59
2022/01/25 03:44:51;;;;;;;8.90;6.05;;;19.80;50.80;;;;;;4995070;28;20046;-59
2022/01/25 03:47:20;;;;;;;6.57;5.32;;;19.80;50.80;;;;;;4994421;28;20046;-59
2022/01/25 03:52:16;;;;;;;8.27;5.97;;;19.80;50.80;;;;;;4994757;28;20063;-59
2022/01/25 03:54:41;;;;;;;6.82;5.45;;;19.80;50.80;;;;;;4993706;28;20046;-60
2022/01/25 03:57:07;;;;;;;7.20;5.45;;;19.80;50.80;;;;;;4994408;28;20097;-59
2022/01/25 03:59:32;;;;;;;7.57;5.40;;;19.80;50.70;;;;;;4994277;28;20050;-60
2022/01/25 04:01:58;;;;;;;7.90;5.35;;;19.80;50.70;;;;;;4993936;28;20044;-59
2022/01/25 04:04:25;;;;;;;7.03;5.75;;;19.80;50.70;;;;;;4994630;28;20058;-59
2022/01/25 04:06:53;;;;;;;7.07;5.40;;;19.90;50.70;;;;;;4994193;28;20379;-59
2022/01/25 04:09:18;;;;;;;7.90;5.40;;;19.90;50.70;;;;;;4993617;28;20129;-59
2022/01/25 04:11:44;;;;;;;6.22;4.75;;;19.90;50.70;;;;;;4994408;28;20154;-59
2022/01/25 04:14:10;;;;;;;8.40;6.13;;;19.90;50.70;;;;;;4994257;28;20133;-59
2022/01/25 04:16:49;;;;;;;7.15;5.68;;;19.90;50.70;;;;;;4993726;28;20545;-59
2022/01/25 04:19:27;;;;;;;6.72;5.30;;;19.90;50.70;;;;;;4994552;28;20042;-59
2022/01/25 04:24:44;;;;;;;7.82;5.55;;;19.90;50.60;;;;;;4993999;28;20069;-59
2022/01/25 04:27:09;;;;;;;6.82;5.45;;;19.90;50.60;;;;;;4994155;28;20043;-59
2022/01/25 04:29:35;;;;;;;7.05;5.28;;;19.90;50.60;;;;;;4992834;28;20046;-59
2022/01/25 04:32:00;;;;;;;7.47;5.47;;;19.90;50.60;;;;;;4994202;28;20042;-59
2022/01/25 04:34:40;;;;;;;8.02;5.85;;;19.90;50.60;;;;;;4993915;28;20039;-59
2022/01/25 04:53:13;;;;;;;6.57;4.90;;;20.00;50.60;;;;;;4994016;28;20058;-59
2022/01/25 04:55:47;;;;;;;7.22;5.10;;;20.00;50.50;;;;;;4976049;28;20100;-59
2022/01/25 04:58:21;;;;;;;6.82;5.15;;;20.00;50.50;;;;;;4993149;28;20043;-59
2022/01/25 05:00:48;;;;;;;7.00;5.40;;;20.10;50.60;;;;;;4995572;28;20100;-59
2022/01/25 05:03:21;;;;;;;7.00;5.10;;;20.00;50.50;;;;;;5007607;28;20054;-59
2022/01/25 05:06:00;;;;;;;6.97;5.28;;;20.10;50.60;;;;;;5011923;28;20046;-59
2022/01/25 05:16:11;;;;;;;5.72;4.47;;;20.10;50.50;;;;;;5013051;28;20073;-59
2022/01/25 05:18:41;;;;;;;7.93;5.40;;;20.10;50.50;;;;;;5010661;28;20041;-59
2022/01/25 05:23:51;;;;;;;6.00;4.72;;;20.10;50.50;;;;;;5012920;28;20042;-59
2022/01/25 05:26:16;;;;;;;6.25;4.95;;;20.10;50.40;;;;;;5012446;28;20490;-59
2022/01/25 05:28:42;;;;;;;5.97;4.78;;;20.10;50.40;;;;;;5012841;28;20080;-59
2022/01/25 05:31:07;;;;;;;7.18;4.70;;;20.10;50.40;;;;;;5012789;28;20041;-59
2022/01/25 05:33:32;;;;;;;7.78;5.03;;;20.10;50.40;;;;;;5011984;28;20048;-59
2022/01/25 05:35:58;;;;;;;6.78;4.68;;;20.10;50.40;;;;;;5012874;28;20454;-60
2022/01/25 05:38:24;;;;;;;6.95;5.20;;;20.10;50.40;;;;;;5013029;28;20053;-59
2022/01/25 05:40:58;;;;;;;7.00;5.30;;;20.10;50.30;;;;;;5011380;28;20049;-59
2022/01/25 05:46:10;;;;;;;7.50;5.05;;;20.10;50.30;;;;;;5012225;28;20074;-59
2022/01/25 05:48:35;;;;;;;6.45;4.97;;;20.10;50.30;;;;;;5012446;28;20536;-59
2022/01/25 05:51:01;;;;;;;7.03;5.22;;;20.10;50.30;;;;;;5012450;28;20073;-59
2022/01/25 05:53:27;;;;;;;6.13;4.57;;;20.10;50.30;;;;;;5011693;28;20042;-59
2022/01/25 05:55:52;;;;;;;6.00;4.93;;;20.20;50.30;;;;;;5012890;28;20050;-59
2022/01/25 05:58:18;;;;;;;6.55;4.78;;;20.20;50.30;;;;;;5012796;28;20070;-59
2022/01/25 06:00:43;;;;;;;6.63;4.93;;;20.10;50.30;;;;;;5011067;28;20140;-59
2022/01/25 06:03:09;;;;;;;7.10;4.82;;;20.20;50.30;;;;;;5012370;28;20125;-59
2022/01/25 06:05:35;;;;;;;6.88;5.00;;;20.20;50.30;;;;;;5012378;28;20073;-59
2022/01/25 06:08:00;;;;;;;7.00;4.78;;;20.20;50.30;;;;;;5012138;28;20100;-59
2022/01/25 06:10:26;;;;;;;6.03;4.57;;;20.20;50.30;;;;;;5012356;28;20046;-59
2022/01/25 06:12:52;;;;;;;6.60;4.78;;;20.20;50.30;;;;;;5012433;28;20045;-59
2022/01/25 06:15:18;;;;;;;5.68;4.20;;;20.20;50.30;;;;;;5011848;28;20095;-59
2022/01/25 06:17:45;;;;;;;6.57;4.65;;;20.20;50.30;;;;;;5012160;28;20057;-59
2022/01/25 06:20:11;;;;;;;7.40;4.88;;;20.20;50.30;;;;;;5012290;28;20042;-59
2022/01/25 06:22:36;;;;;;;7.07;4.85;;;20.20;50.20;;;;;;5011636;28;20045;-59
2022/01/25 06:25:02;;;;;;;7.63;5.28;;;20.20;50.20;;;;;;5011723;28;20044;-59
2022/01/25 06:27:28;;;;;;;7.05;5.00;;;20.20;50.20;;;;;;5011055;28;20080;-59
2022/01/25 06:29:53;;;;;;;5.95;4.70;;;20.20;50.20;;;;;;5011576;28;20077;-59
2022/01/25 06:32:19;;;;;;;6.63;4.63;;;20.20;50.20;;;;;;5011992;28;20133;-59
2022/01/25 06:34:45;;;;;;;6.55;4.88;;;20.30;50.30;;;;;;5011959;28;20054;-60
2022/01/25 06:37:12;;;;;;;5.85;4.60;;;20.20;50.20;;;;;;5011397;28;20088;-59
2022/01/25 06:39:38;;;;;;;7.45;5.20;;;20.30;50.20;;;;;;5012039;28;20046;-59
2022/01/25 06:42:04;;;;;;;6.85;5.40;;;20.30;50.20;;;;;;5011274;28;20053;-60
2022/01/25 06:44:33;;;;;;;6.88;5.07;;;20.30;50.30;;;;;;5011899;28;20038;-59
2022/01/25 06:46:58;;;;;;;7.53;5.00;;;20.30;50.20;;;;;;5011258;28;20077;-59
2022/01/25 06:49:24;;;;;;;7.60;5.18;;;20.30;50.30;;;;;;5011508;28;20050;-59
2022/01/25 06:51:49;;;;;;;6.85;4.90;;;20.30;50.30;;;;;;5013192;28;20053;-59
2022/01/25 06:54:15;;;;;;;7.53;4.72;;;20.30;50.30;;;;;;5014564;28;20049;-59
2022/01/25 06:56:41;;;;;;;6.95;4.70;;;20.30;50.40;;;;;;5014740;28;20505;-59
2022/01/25 06:59:06;;;;;;;6.72;4.75;;;20.30;50.40;;;;;;4998027;28;20045;-59
2022/01/25 07:01:31;;;;;;;6.97;5.00;;;20.30;50.40;;;;;;5014977;28;20081;-59
2022/01/25 07:03:57;;;;;;;6.70;4.53;;;20.30;50.40;;;;;;5013564;28;20081;-59
2022/01/25 07:06:22;;;;;;;7.07;4.80;;;20.30;50.40;;;;;;5015646;28;20156;-59
2022/01/25 07:08:48;;;;;;;7.80;4.95;;;20.30;50.40;;;;;;5014435;28;20085;-59
2022/01/25 07:11:14;;;;;;;8.40;5.00;;;20.30;50.40;;;;;;5014694;28;20046;-59
2022/01/25 07:13:39;;;;;;;6.72;4.40;;;20.30;50.40;;;;;;5014788;28;20049;-60
2022/01/25 07:16:05;;;;;;;7.82;4.85;;;20.40;50.60;;;;;;5015260;28;20477;-59
2022/01/25 07:18:31;;;;;;;7.28;4.90;;;20.40;50.50;;;;;;5012797;28;20107;-58
2022/01/25 07:20:57;;;;;;;6.85;4.53;;;20.40;50.50;;;;;;5014231;28;20041;-59
2022/01/25 07:23:22;;;;;;;7.68;5.50;;;20.40;50.60;;;;;;5015298;28;20046;-59
2022/01/25 07:25:48;;;;;;;6.53;4.95;;;20.40;50.60;;;;;;5013860;28;20095;-58
2022/01/25 07:28:14;;;;;;;7.28;4.85;;;20.40;50.80;;;;;;5015189;28;20132;-59
2022/01/25 07:30:39;;;;;;;7.45;4.82;;;20.40;51.00;;;;;;5014674;28;20046;-59
2022/01/25 07:33:06;;;;;;;6.68;4.70;;;20.40;51.10;;;;;;5013954;28;20045;-58
2022/01/25 07:35:34;;;;;;;6.47;4.43;;;20.40;51.10;;;;;;5014809;28;20205;-58
2022/01/25 07:37:59;;;;;;;7.43;4.80;;;20.40;51.20;;;;;;5013941;28;20042;-59
2022/01/25 07:40:25;;;;;;;7.10;4.90;;;20.40;51.20;;;;;;5002632;28;20096;-59
2022/01/25 07:42:50;;;;;;;6.38;4.50;;;20.40;51.30;;;;;;5000402;28;20038;-59
2022/01/25 07:45:16;;;;;;;9.93;5.18;;;20.40;51.40;;;;;;4994038;28;20046;-59
2022/01/25 07:47:41;;;;;;;7.18;4.78;;;20.40;51.50;;;;;;4994399;28;20048;-59
2022/01/25 07:50:07;;;;;;;8.75;4.63;;;20.50;51.70;;;;;;4995192;28;20042;-59
2022/01/25 07:52:33;;;;;;;8.43;4.93;;;20.50;51.80;;;;;;4993881;28;20077;-59
2022/01/25 07:54:59;;;;;;;11.35;4.88;;;20.50;51.90;;;;;;4994818;28;20084;-59
2022/01/25 07:57:25;;;;;;;7.80;4.93;;;20.50;51.90;;;;;;4995080;28;20058;-59
2022/01/25 07:59:51;;;;;;;6.95;4.50;;;20.50;52.00;;;;;;4994019;28;20234;-58
2022/01/25 08:02:17;;;;;;;8.07;4.75;;;20.50;52.00;;;;;;4994677;28;20129;-59
2022/01/25 08:04:42;;;;;;;7.05;5.30;;;20.50;52.00;;;;;;4994159;28;20066;-59
2022/01/25 08:07:08;;;;;;;8.40;4.97;;;20.50;52.00;;;;;;4994094;28;20038;-59
2022/01/25 08:09:33;;;;;;;7.20;5.03;;;20.50;52.00;;;;;;4994318;28;20402;-59
2022/01/25 08:11:59;;;;;;;7.50;4.93;;;20.60;52.00;;;;;;4994783;28;20057;-59
2022/01/25 08:14:24;;;;;;;8.35;5.05;;;20.60;52.10;;;;;;4993437;28;20523;-58
2022/01/25 08:16:50;;;;;;;9.77;4.80;;;20.60;52.80;;;;;;4994247;28;20522;-59
2022/01/25 08:19:16;;;;;;;7.40;4.93;;;20.60;52.20;;;;;;4994768;28;20045;-59
2022/01/25 08:21:42;;;;;;;8.32;5.13;;;20.60;52.20;;;;;;4992951;28;20402;-59
2022/01/25 08:24:13;;;;;;;6.90;5.28;;;20.60;52.20;;;;;;4994357;28;20042;-59
2022/01/25 08:26:39;;;;;;;7.03;5.35;;;20.60;52.10;;;;;;4994053;28;20494;-59
2022/01/25 08:29:04;;;;;;;7.30;5.05;;;20.60;52.20;;;;;;4993634;28;20046;-58
2022/01/25 08:31:30;;;;;;;9.05;5.43;;;20.60;52.00;;;;;;4993731;28;20118;-59
2022/01/25 08:33:56;;;;;;;6.68;4.80;;;20.60;52.00;;;;;;5001222;28;20073;-59
2022/01/25 08:36:21;;;;;;;6.43;4.90;;;20.60;52.10;;;;;;5013303;28;20041;-59
2022/01/25 08:38:47;;;;;;;8.10;5.10;;;20.60;52.20;;;;;;5013484;28;20046;-59
2022/01/25 08:41:13;;;;;;;7.13;5.30;;;20.60;52.30;;;;;;5013786;28;20041;-59
2022/01/25 08:43:39;;;;;;;9.48;5.82;;;20.60;52.30;;;;;;5012191;28;20048;-59
2022/01/25 08:46:04;;;;;;;8.25;5.35;;;20.70;52.30;;;;;;5013418;28;20049;-59
2022/01/25 08:48:30;;;;;;;6.60;4.82;;;20.70;52.30;;;;;;5013396;28;20539;-59
2022/01/25 08:50:55;;;;;;;6.70;5.07;;;20.70;52.30;;;;;;4995372;28;20068;-59
2022/01/25 08:53:21;;;;;;;8.35;4.90;;;20.70;52.40;;;;;;5013430;28;20045;-60
2022/01/25 08:55:46;;;;;;;8.57;4.93;;;20.70;52.30;;;;;;5012507;28;20042;-59
2022/01/25 08:58:12;;;;;;;7.75;4.88;;;20.70;52.40;;;;;;5013223;28;20056;-59
2022/01/25 09:00:37;;;;;;;7.93;5.32;;;20.70;52.30;;;;;;5008825;28;20477;-59
2022/01/25 09:03:03;;;;;;;6.90;5.43;;;20.70;52.40;;;;;;4992746;28;20057;-59
2022/01/25 09:05:28;;;;;;;10.75;5.43;;;20.70;52.40;;;;;;4993604;28;20118;-59
2022/01/25 09:07:56;;;;;;;7.90;5.30;;;20.70;52.50;;;;;;4993732;28;20104;-59
2022/01/25 09:10:22;;;;;;;6.25;4.88;;;20.70;52.40;;;;;;4975199;28;20046;-59
2022/01/25 09:12:48;;;;;;;7.72;5.13;;;20.70;52.40;;;;;;4993168;28;20042;-59
2022/01/25 09:15:13;;;;;;;7.53;5.32;;;20.70;52.40;;;;;;4992999;28;20117;-59
2022/01/25 09:17:39;;;;;;;8.77;4.78;;;20.70;52.50;;;;;;4975298;28;20394;-59
2022/01/25 09:20:05;;;;;;;10.88;6.13;;;20.70;52.50;;;;;;4993630;28;20132;-60
2022/01/25 09:22:30;;;;;;;7.55;5.50;;;20.70;52.50;;;;;;4992963;28;20048;-59
2022/01/25 09:24:56;;;;;;;7.55;5.45;;;20.70;52.50;;;;;;4992364;28;20093;-58
2022/01/25 09:27:21;;;;;;;8.10;5.55;;;20.70;52.30;;;;;;4993228;28;20065;-60
2022/01/25 09:29:47;;;;;;;9.10;6.15;;;20.70;52.30;;;;;;4992998;28;20137;-59
2022/01/25 09:32:12;;;;;;;7.97;5.63;;;20.70;52.40;;;;;;4992666;28;20046;-59
2022/01/25 09:34:38;;;;;;;7.32;5.38;;;20.70;52.30;;;;;;4995867;28;20112;-59
2022/01/25 09:37:04;;;;;;;9.10;5.60;;;20.70;52.40;;;;;;5012655;28;20050;-59
2022/01/25 09:39:29;;;;;;;7.38;5.82;;;20.70;52.40;;;;;;5011589;28;20116;-60
2022/01/25 09:41:55;;;;;;;7.45;5.55;;;20.70;52.40;;;;;;5012700;28;20128;-59
2022/01/25 09:44:21;;;;;;;10.18;6.10;;;20.70;52.30;;;;;;5012401;28;20453;-59
2022/01/25 09:46:46;;;;;;;9.65;6.53;;;20.70;52.30;;;;;;5011838;28;20042;-59
2022/01/25 09:49:12;;;;;;;10.23;6.95;;;20.70;52.00;;;;;;5012897;28;20126;-59
2022/01/25 09:51:39;;;;;;;8.23;6.22;;;20.70;51.90;;;;;;5012429;28;20126;-59
2022/01/25 09:54:04;;;;;;;8.48;5.85;;;20.70;51.90;;;;;;5011829;28;20523;-59
2022/01/25 09:56:31;;;;;;;9.07;6.00;;;20.70;52.10;;;;;;5012683;28;20141;-58
2022/01/25 09:58:56;;;;;;;10.30;5.85;;;20.70;52.20;;;;;;5011371;28;20054;-59
2022/01/25 10:01:29;;;;;;;9.38;6.13;;;20.70;52.30;;;;;;5007519;28;20053;-58
2022/01/25 10:03:55;;;;;;;8.88;5.72;;;20.80;52.40;;;;;;5003394;28;20096;-58
2022/01/25 10:06:21;;;;;;;8.35;6.13;;;20.80;52.50;;;;;;5000085;28;20038;-58
2022/01/25 10:08:50;;;;;;;8.77;6.55;;;20.80;52.50;;;;;;4992020;28;20050;-58
2022/01/25 10:11:16;;;;;;;10.25;6.03;;;20.80;52.50;;;;;;5001502;28;20057;-57
2022/01/25 10:13:43;;;;;;;10.73;6.57;;;20.80;52.50;;;;;;5011316;28;20085;-57
2022/01/25 10:16:36;;;;;;;9.30;6.65;;;20.80;52.40;;;;;;5006255;28;20038;-58
2022/01/25 10:19:06;;;;;;;9.30;6.30;;;20.80;52.20;;;;;;4993612;28;20059;-58
2022/01/25 10:21:33;;;;;;;10.20;6.90;;;20.80;52.20;;;;;;4999912;28;20052;-58
2022/01/25 10:24:19;;;;;;;7.82;5.88;;;20.80;52.20;;;;;;4998968;28;20467;-58
2022/01/25 10:27:03;;;;;;;9.55;6.72;;;20.80;52.20;;;;;;5002360;28;20046;-58
2022/01/25 10:29:34;;;;;;;8.32;5.95;;;20.80;52.20;;;;;;5006391;28;20096;-58
2022/01/25 10:32:09;;;;;;;9.75;6.32;;;20.80;52.40;;;;;;5006018;28;20040;-57
2022/01/25 10:34:41;;;;;;;9.07;6.15;;;20.80;52.70;;;;;;4997974;28;20474;-59
2022/01/25 10:37:17;;;;;;;9.95;6.22;;;20.80;52.80;;;;;;4996267;28;20038;-61
2022/01/25 10:39:44;;;;;;;9.45;6.25;;;20.80;52.60;;;;;;4996169;28;20046;-59
2022/01/25 10:42:21;;;;;;;10.05;6.53;;;20.80;52.60;;;;;;4995723;28;20109;-59
2022/01/25 10:44:48;;;;;;;12.50;6.65;;;20.90;52.70;;;;;;4995236;28;20042;-59
2022/01/25 10:47:14;;;;;;;9.48;6.63;;;20.90;52.80;;;;;;4996195;28;20050;-60
2022/01/25 10:49:47;;;;;;;9.88;6.13;;;20.90;52.60;;;;;;4995218;28;20045;-59
2022/01/25 10:52:13;;;;;;;10.65;5.68;;;20.90;52.50;;;;;;4996412;28;20050;-59
2022/01/25 10:54:39;;;;;;;11.10;6.55;;;20.90;52.50;;;;;;4995745;28;20052;-59
2022/01/25 10:57:05;;;;;;;11.15;6.53;;;20.90;52.50;;;;;;4995042;28;20555;-58
2022/01/25 10:59:32;;;;;;;11.20;6.43;;;20.90;52.50;;;;;;4995752;28;20050;-60
2022/01/25 11:02:00;;;;;;;9.10;6.47;;;20.90;52.40;;;;;;4996204;28;20043;-57
2022/01/25 11:04:31;;;;;;;10.57;6.30;;;20.90;52.30;;;;;;5002835;28;20132;-60
2022/01/25 11:06:59;;;;;;;9.55;6.35;;;20.90;52.40;;;;;;5008053;28;20038;-58
2022/01/25 11:09:27;;;;;;;14.70;7.50;;;20.90;52.50;;;;;;5000256;28;21284;-58
2022/01/25 11:11:55;;;;;;;11.93;7.27;;;20.90;53.00;;;;;;4996548;28;20078;-58
2022/01/25 11:17:05;;;;;;;13.85;7.00;;;20.90;52.60;;;;;;4994471;28;20054;-59
2022/01/25 11:19:30;;;;;;;9.43;6.28;;;20.90;52.60;;;;;;5002803;28;20042;-59
2022/01/25 11:21:58;;;;;;;12.90;6.78;;;20.90;52.70;;;;;;5002116;28;20441;-59
2022/01/25 11:24:24;;;;;;;11.73;6.28;;;20.90;52.60;;;;;;5005865;28;20519;-59
2022/01/25 11:26:50;;;;;;;13.00;7.07;;;20.90;52.70;;;;;;5003181;28;20046;-58
2022/01/25 11:29:16;;;;;;;12.23;6.20;;;20.90;52.70;;;;;;5004979;28;20073;-59
2022/01/25 11:31:44;;;;;;;12.32;6.82;;;20.90;52.70;;;;;;5000077;28;20042;-60
2022/01/25 11:34:12;;;;;;;11.65;7.47;;;20.90;52.70;;;;;;5011795;28;20050;-59
2022/01/25 11:36:58;;;;;;;9.93;6.67;;;20.90;52.50;;;;;;5014030;28;20050;-59
2022/01/25 11:39:27;;;;;;;11.10;6.93;;;20.90;52.20;;;;;;5013144;28;20341;-59
2022/01/25 11:42:15;;;;;;;12.30;7.18;;;21.00;52.20;;;;;;5014712;28;20045;-59
2022/01/25 11:44:52;;;;;;;11.90;6.25;;;21.00;52.20;;;;;;5013835;28;20049;-59
2022/01/25 11:47:20;;;;;;;11.13;6.70;;;20.90;52.10;;;;;;5014284;28;20042;-59
2022/01/25 11:49:56;;;;;;;;;;;20.90;52.10;;;;;;5014384;28;20584;-58
2022/01/25 11:52:24;;;;;;;12.85;6.28;;;20.90;52.20;;;;;;5014055;28;19921;-59
2022/01/25 11:54:51;;;;;;;11.80;5.72;;;20.90;52.20;;;;;;5014531;28;20149;-59
2022/01/25 11:57:21;;;;;;;11.98;7.22;;;20.90;52.20;;;;;;5014012;28;20048;-59
2022/01/25 11:59:55;;;;;;;11.20;6.55;;;20.90;51.90;;;;;;5012774;28;20414;-60
2022/01/25 12:02:42;;;;;;;12.30;6.97;;;20.90;51.90;;;;;;5014567;28;20041;-59
2022/01/25 12:05:09;;;;;;;11.73;7.40;;;20.90;51.90;;;;;;5002723;28;20065;-58
2022/01/25 12:07:40;;;;;;;13.70;6.95;;;20.90;51.90;;;;;;5001006;28;20066;-59
2022/01/25 12:10:38;;;;;;;12.98;7.13;;;20.90;51.80;;;;;;5001420;28;20050;-58
2022/01/25 12:13:10;;;;;;;13.00;7.43;;;20.90;51.80;;;;;;5003986;28;20486;-59
2022/01/25 12:15:35;;;;;;;11.82;6.80;;;20.90;52.00;;;;;;5004326;28;20113;-59
2022/01/25 12:18:02;;;;;;;13.45;7.45;;;20.90;52.10;;;;;;5004767;28;20129;-59
2022/01/25 12:20:28;;;;;;;12.73;7.47;;;20.90;52.10;;;;;;5002617;28;20120;-59
2022/01/25 12:23:06;;;;;;;10.23;6.75;;;20.90;52.20;;;;;;5001811;28;20129;-59
2022/01/25 12:25:47;;;;;;;10.50;6.85;;;21.00;52.40;;;;;;5004501;28;20082;-59
2022/01/25 12:28:32;;;;;;;12.25;6.68;;;21.00;52.50;;;;;;5002339;28;20053;-59
2022/01/25 12:31:01;;;;;;;10.13;6.40;;;21.00;52.50;;;;;;5005988;28;20069;-59
2022/01/25 12:33:28;;;;;;;13.25;7.03;;;21.00;52.60;;;;;;5003817;28;20057;-59
2022/01/25 12:36:13;;;;;;;12.57;7.00;;;21.00;52.60;;;;;;5003595;28;20048;-60
2022/01/25 12:38:47;;;;;;;12.30;7.03;;;21.00;52.60;;;;;;4997975;28;20058;-59
2022/01/25 12:41:13;;;;;;;13.77;7.20;;;21.00;52.60;;;;;;4993136;28;20038;-60
2022/01/25 12:43:55;;;;;;;12.32;6.53;;;21.00;52.60;;;;;;4993486;28;20445;-60
2022/01/25 12:46:32;;;;;;;12.65;7.50;;;21.00;52.70;;;;;;4993982;28;20050;-60
2022/01/25 12:49:05;;;;;;;13.98;6.90;;;21.00;52.60;;;;;;4993193;28;20042;-60
2022/01/25 12:51:32;;;;;;;11.32;6.78;;;21.00;52.60;;;;;;4993619;28;20046;-59
2022/01/25 12:53:59;;;;;;;9.23;6.43;;;21.00;52.60;;;;;;4993781;28;20050;-59
2022/01/25 12:56:34;;;;;;;10.82;6.10;;;21.00;52.50;;;;;;4993157;28;20042;-60
2022/01/25 12:59:03;;;;;;;11.10;7.32;;;21.00;52.60;;;;;;4993674;28;20402;-60
2022/01/25 13:01:29;;;;;;;10.75;6.28;;;21.00;52.50;;;;;;4993165;28;20054;-59
2022/01/25 13:03:57;;;;;;;9.73;7.03;;;21.00;52.50;;;;;;4992889;28;20225;-59
2022/01/25 13:06:28;;;;;;;11.70;6.15;;;21.00;52.60;;;;;;4993746;28;20050;-59
2022/01/25 13:09:08;;;;;;;9.75;6.20;;;21.00;52.70;;;;;;4992986;28;20046;-59
2022/01/25 13:16:49;;;;;;;10.10;6.25;;;21.00;52.60;;;;;;4999910;28;20053;-59
2022/01/25 13:19:17;;;;;;;9.90;6.32;;;21.00;52.60;;;;;;5000963;28;20046;-59
2022/01/25 13:21:49;;;;;;;11.63;6.20;;;21.10;52.50;;;;;;4998919;28;20407;-59
2022/01/25 13:24:17;;;;;;;12.85;6.80;;;21.00;52.20;;;;;;4992393;28;20455;-58
2022/01/25 13:26:55;;;;;;;9.73;6.60;;;21.10;52.20;;;;;;4992660;28;20384;-57
2022/01/25 13:32:10;;;;;;;12.55;7.55;;;21.00;52.00;;;;;;4982809;28;20054;-57
2022/01/25 13:34:36;;;;;;;13.68;7.20;;;21.10;51.60;;;;;;5002973;28;20132;-58
2022/01/25 13:37:02;;;;;;;12.32;7.35;;;21.00;51.60;;;;;;4995026;28;20042;-59
2022/01/25 13:39:29;;;;;;;12.55;7.38;;;21.10;51.70;;;;;;4992969;28;20068;-58
2022/01/25 13:42:08;;;;;;;12.00;7.47;;;21.10;51.50;;;;;;5006580;28;20616;-59
2022/01/25 13:47:18;;;;;;;14.98;8.05;;;21.10;51.20;;;;;;5009961;28;20074;-60
2022/01/25 13:49:43;;;;;;;13.27;7.40;;;21.10;51.10;;;;;;5011333;28;20085;-59
2022/01/25 13:52:09;;;;;;;13.73;7.40;;;21.10;51.20;;;;;;4993880;28;20046;-59
2022/01/25 13:54:35;;;;;;;12.65;7.85;;;21.10;51.20;;;;;;4994697;28;20138;-59
2022/01/25 13:57:10;;;;;;;12.40;7.55;;;21.10;51.10;;;;;;5012440;28;20401;-60
2022/01/25 13:59:36;;;;;;;15.43;6.93;;;21.10;50.80;;;;;;5003758;28;20042;-60
2022/01/25 14:02:02;;;;;;;13.82;7.35;;;21.10;50.90;;;;;;4992969;28;20051;-59
2022/01/25 14:04:28;;;;;;;11.25;7.60;;;21.10;51.00;;;;;;4995798;28;20034;-60
2022/01/25 14:07:00;;;;;;;11.57;6.82;;;21.10;51.10;;;;;;5007547;28;20050;-59
2022/01/25 14:09:35;;;;;;;11.98;7.28;;;21.10;51.20;;;;;;5009284;28;20164;-60
2022/01/25 14:25:30;;;;;;;15.73;7.28;;;21.10;51.40;;;;;;5015612;28;20053;-59
2022/01/25 14:27:57;;;;;;;14.13;6.68;;;21.20;51.60;;;;;;5015662;28;20128;-59
2022/01/25 14:30:23;;;;;;;11.50;6.65;;;21.20;51.60;;;;;;5016271;28;20161;-59
2022/01/25 14:33:01;;;;;;;12.43;6.95;;;21.10;51.60;;;;;;5015676;28;20050;-66
2022/01/25 14:35:26;;;;;;;11.90;6.60;;;21.20;51.60;;;;;;5013683;28;20046;-60
2022/01/25 14:37:52;;;;;;;10.90;6.63;;;21.20;51.70;;;;;;5000851;28;20062;-59
2022/01/25 14:40:18;;;;;;;12.93;7.15;;;21.20;51.60;;;;;;5004920;28;20034;-60
2022/01/25 14:42:44;;;;;;;12.57;7.22;;;21.20;51.60;;;;;;5007532;28;20096;-60
2022/01/25 14:45:14;;;;;;;11.27;6.50;;;21.20;51.70;;;;;;5002753;28;20088;-57
2022/01/25 14:47:42;;;;;;;12.45;6.70;;;21.20;51.60;;;;;;5014907;28;20038;-58